Abbotsford Airport
CYXX : now visible

Airfield :











YOU CAN JOIN US ON...

 
LOGIN :

Register | Disclaimer

   EN    FR    IT 

 









Legend :    VFR   Marginal VFR   IFR   Intensive IFR   Very Intensive IFR
Visi :
Ceiling :
>= 8 km
>= 3000ft
5 to 8 km
1000 to 3000 ft
1500m to 5 km
500 to 1000 ft
800 to 1500m
200 to 500 ft
< 800m
< 200 ft
Symbols :   Thunderstorms  Fog  Heavy snow  Heavy precipitations  Wind > 20 kt






- Airport Elevation : 195 ft
- IATA code : YXX


CYXX - Abbotsford

CURRENT METAR :
  • 240500Z 35004KT 15SM SCT043 BKN049 OVC240 00/M03 A3002 RMK SC7SC1CI1 SC TR SLP171

EXPIRED METARs :
  • 240400Z 03003KT 15SM BKN039 OVC230 M01/M04 A3004 RMK SC6CS2 CU ASOCTD SLP177
  • 240342Z VRB02KT 15SM SCT042 BKN210 OVC240 M00/M04 A3004 RMK SC4CI1CS3 SLP178
  • 240300Z VRB02KT 15SM SCT210 OVC250 M00/M04 A3005 RMK CS3CS5 SLP182

TAF TAF CYXX
Valid from the 24 at 00:00 until the 25 at 00:00 UTC


232338Z 2400/2424 VRB03KT P6SM FEW020 FEW220
TEMPO 2400/2403 BKN020
FM240300 04007KT P6SM BKN025
TEMPO 2406/2410 4SM -SN BKN012 OVC025
FM241000 04008KT 5SM -SN OVC020
TEMPO 2410/2418 1SM -SHSN VV008
FM241800 05010KT 6SM -RA BR SCT008 OVC020
TEMPO 2418/2420 2SM -RASN BKN008 OVC020 RMK NXT FCST BY 240600Z
CZVR FIR / North America



MET'MAP, your aeronautical weather chart ! - Copyright ORBIFLY December 2007 - Disclaimer

ORBIFLY MET'MAP TEAM :

Programming & Development : Alexandra Zaïnal
Concept & original design : Baudouin d'Aumeries
Assistance for programming : Marc-Olivier Méhu
Technical & hardware support : Manuel Goepfert

Contact : metmap@orbifly.com




SOURCES & CREDITS :

   NOAA       Earth
Advisory